Airfield :







YOU CAN JOIN US ON...

 
LOGIN :

Register | Disclaimer

   EN    FR    IT 

 









Legend :    VFR   Marginal VFR   IFR   Intensive IFR   Very Intensive IFR
Visi :
Ceiling :
>= 8 km
>= 3000ft
5 to 8 km
1000 to 3000 ft
1500m to 5 km
500 to 1000 ft
800 to 1500m
200 to 500 ft
< 800m
< 200 ft
Symbols :   Thunderstorms  Fog  Heavy snow  Heavy precipitations  Wind > 20 kt






- Airport Elevation : 36 ft
- IATA code : PTP


TFFR - Le Raizet

CURRENT METAR :
  • 022230Z AUTO 02004KT CAVOK 28/23 Q1016 TEMPO 2500 SHRA BKN015CB

EXPIRED METARs :
  • 022200Z AUTO 05005KT 010V080 CAVOK 28/23 Q1016 TEMPO 2500 SHRA BKN015CB
  • 022130Z AUTO VRB02KT CAVOK 29/23 Q1016 TEMPO 2500 SHRA BKN015CB
  • 022100Z AUTO 35004KT 310V040 CAVOK 29/22 Q1016 TEMPO 2500 SHRA BKN015CB
  • 022030Z AUTO 01005KT 320V050 9999 ///CB 29/23 Q1016 TEMPO 2500 SHRA
  • 022000Z AUTO 02006KT 340V050 9999 ///TCU 29/22 Q1016 TEMPO 2500 SHRA BKN015CB

TAF TAF TFFR
Valid from the 02 at 18:00 until the 03 at 18:00 UTC


021700Z 0218/0318 15008KT 9999 SCT030 SCT035
TEMPO 0218/0309 4000 SHRA SCT018TCU BKN020
PROB30
TEMPO 0218/0305 VRB10KT 2500 SHRA BKN015CB
TTZP FIR / North America



MET'MAP, your aeronautical weather chart ! - Copyright ORBIFLY December 2007 - Disclaimer

ORBIFLY MET'MAP TEAM :

Programming & Development : Alexandra Zaïnal
Concept & original design : Baudouin d'Aumeries
Assistance for programming : Marc-Olivier Méhu
Technical & hardware support : Manuel Goepfert

Contact : metmap@orbifly.com




SOURCES & CREDITS :

   NOAA